This is the latest recevied weather packets stored in our database for station/object K0TNT-10. If no packets are shown the sender has not sent any weather packets the latest 10 day(s).
| Time | Temp. | Humidity | Pressure | Rain* | Wind** | Luminosity | Snow |
|---|---|---|---|---|---|---|---|
| 1777363212 | 8.89° C | 80% | 1015.2 hPa | 0 mm | - | - | - |
| 1777360537 | 8.33° C | 79% | 1016 hPa | 0 mm | - | - | - |
| 1777354227 | 8.89° C | 75% | 1015.7 hPa | 0 mm | - | - | - |
| 1777351513 | 10° C | 73% | 1015.5 hPa | 0 mm | - | - | - |
| 1777348816 | 11.11° C | 74% | 1014.7 hPa | 0 mm | - | - | - |
| 1777347034 | 11.11° C | 75% | 1014.4 hPa | 0 mm | - | - | - |
| 1777343417 | 12.22° C | 73% | 1013.7 hPa | 0 mm | - | - | - |
| 1777342567 | 12.78° C | 72% | 1013.3 hPa | 0 mm | - | - | - |
| 1777338062 | 14.44° C | 67% | 1011.3 hPa | 0 mm | - | - | - |
| 1777333526 | 16.67° C | 64% | 1009.8 hPa | 0 mm | - | - | - |
| 1777331746 | 17.78° C | 60% | 1009.1 hPa | 0 mm | - | - | - |
| 1777329023 | 18.89° C | 61% | 1008.1 hPa | 0 mm | - | - | - |
| 1777321840 | 17.22° C | 75% | 1006.2 hPa | 0 mm | - | - | - |
| 1777317367 | 18.33° C | 71% | 1005.4 hPa | 0 mm | - | - | - |
| 1777315554 | 18.89° C | 74% | 1004.7 hPa | 0 mm | - | - | - |
| 1777311906 | 19.44° C | 73% | 1004.2 hPa | 0 mm | - | - | - |
| 1777307406 | 20° C | 78% | 1002.9 hPa | 0 mm | - | - | - |
| 1777301144 | 17.22° C | 89% | 1001.4 hPa | 0.25 mm | - | - | - |
| 1777297545 | 16.11° C | 96% | 1000.8 hPa | 0 mm | - | - | - |
| 1777291231 | 14.44° C | 96% | 1001.1 hPa | 0 mm | - | - | - |
| 1777286739 | 14.44° C | 96% | 1000 hPa | 0 mm | - | - | - |
| 1777285819 | 14.44° C | 96% | 1000 hPa | 0.25 mm | - | - | - |
| 1777284959 | 14.44° C | 96% | 1000.1 hPa | 1.78 mm | - | - | - |
| 1777275043 | 15° C | 95% | 999.9 hPa | 23.37 mm | - | - | - |
| 1777272341 | 15.56° C | 95% | 1001.4 hPa | 23.88 mm | - | - | - |
* Rain latest hour (hover to see other rain measurements)
** Current wind speed in m/s (hover to see current wind gust speed)